createdAt,value
2018-04-18T00:00:12.009Z,80.44
2018-04-18T00:01:12.028Z,80.92
2018-04-18T00:02:12.045Z,79.39
2018-04-18T00:03:12.061Z,79.87
2018-04-18T00:04:12.077Z,80.44
2018-04-18T00:05:12.092Z,79.10
2018-04-18T00:06:12.109Z,79.29
2018-04-18T00:07:12.123Z,79.00
2018-04-18T00:08:12.150Z,78.91
2018-04-18T00:09:12.167Z,79.20
2018-04-18T00:10:12.179Z,80.35
2018-04-18T00:12:12.225Z,79.87
2018-04-18T00:13:12.261Z,79.77
2018-04-18T00:14:12.241Z,79.49
2018-04-18T00:15:12.258Z,79.87
2018-04-18T00:16:12.275Z,79.93
2018-04-18T00:17:12.290Z,79.35
2018-04-18T00:18:12.307Z,80.02
2018-04-18T00:19:12.323Z,79.93
2018-04-18T00:20:12.337Z,79.83
2018-04-18T00:21:12.470Z,80.69
2018-04-18T00:22:12.381Z,80.40
2018-04-18T00:23:12.475Z,80.69
2018-04-18T00:24:12.407Z,79.93
2018-04-18T00:25:12.425Z,80.21
2018-04-18T00:26:12.436Z,80.79
2018-04-18T00:27:12.454Z,80.21
2018-04-18T00:28:12.470Z,80.69
2018-04-18T00:29:12.487Z,81.26
2018-04-18T00:30:12.504Z,80.98
2018-04-18T00:31:12.519Z,80.40
2018-04-18T00:32:12.534Z,80.30
2018-04-18T00:33:12.554Z,81.16
2018-04-18T00:34:12.570Z,81.07
2018-04-18T00:35:12.586Z,81.16
2018-04-18T00:36:12.602Z,80.98
2018-04-18T00:37:12.622Z,80.40
2018-04-18T00:38:12.634Z,80.40
2018-04-18T00:39:12.651Z,80.11
2018-04-18T00:40:12.667Z,79.83
2018-04-18T00:41:12.684Z,79.73
2018-04-18T00:42:12.700Z,80.21
2018-04-18T00:43:12.716Z,81.16
2018-04-18T00:44:12.731Z,81.16
2018-04-18T00:45:12.749Z,81.26
2018-04-18T00:46:12.767Z,80.69
2018-04-18T00:47:12.782Z,80.69
2018-04-18T00:48:12.801Z,80.11
2018-04-18T00:49:12.816Z,80.98
2018-04-18T00:50:12.832Z,81.07
2018-04-18T00:51:12.848Z,81.45
2018-04-18T00:52:12.865Z,81.55
2018-04-18T00:53:12.878Z,80.98
2018-04-18T00:54:12.890Z,81.16
2018-04-18T00:55:13.013Z,81.16
2018-04-18T00:56:12.982Z,81.26
2018-04-18T00:57:12.940Z,81.45
2018-04-18T00:58:12.959Z,81.07
2018-04-18T00:59:12.973Z,81.84
2018-04-18T01:00:12.990Z,81.74
2018-04-18T01:01:13.006Z,81.84
2018-04-18T01:02:13.022Z,81.55
2018-04-18T01:03:13.038Z,81.74
2018-04-18T01:04:13.055Z,82.79
2018-04-18T01:05:13.071Z,83.17
2018-04-18T01:06:13.089Z,82.70
2018-04-18T01:07:13.103Z,82.70
2018-04-18T01:08:13.119Z,82.51
2018-04-18T01:09:13.135Z,82.46
2018-04-18T01:10:13.155Z,82.70
2018-04-18T01:11:13.173Z,83.13
2018-04-18T01:12:13.184Z,83.51
2018-04-18T01:13:13.203Z,83.61
2018-04-18T01:14:13.219Z,83.33
2018-04-18T01:15:13.235Z,83.33
2018-04-18T01:16:13.252Z,83.33
2018-04-18T01:17:13.266Z,83.61
2018-04-18T01:18:13.294Z,83.80
2018-04-18T01:19:13.325Z,84.38
2018-04-18T01:20:13.315Z,83.90
2018-04-18T01:21:13.333Z,83.90
2018-04-18T01:22:13.350Z,84.19
2018-04-18T01:23:13.376Z,84.95
2018-04-18T01:24:13.383Z,84.66
2018-04-18T01:25:13.399Z,84.19
2018-04-18T01:26:13.414Z,84.56
2018-04-18T01:27:13.462Z,85.05
2018-04-18T01:28:13.458Z,84.95
2018-04-18T01:29:13.462Z,84.85
2018-04-18T01:30:13.521Z,85.52
2018-04-18T01:31:13.495Z,85.33
2018-04-18T01:32:13.511Z,86.19
2018-04-18T01:33:13.528Z,85.52
2018-04-18T01:34:13.548Z,84.95
2018-04-18T01:35:13.560Z,85.24
2018-04-18T01:36:13.577Z,85.81
2018-04-18T01:37:13.602Z,85.14
2018-04-18T01:38:13.608Z,84.95
2018-04-18T01:39:13.625Z,84.95
2018-04-18T01:40:13.651Z,84.66
2018-04-18T01:41:13.663Z,84.85
2018-04-18T01:42:13.676Z,85.33
2018-04-18T01:43:13.689Z,85.05
2018-04-18T01:44:13.708Z,84.95
2018-04-18T01:45:13.722Z,85.81
2018-04-18T01:46:13.739Z,85.62
2018-04-18T01:47:13.756Z,86.47
2018-04-18T01:48:13.774Z,86.34
2018-04-18T01:49:13.788Z,86.24
2018-04-18T01:50:13.805Z,85.81
2018-04-18T01:51:13.822Z,85.77
2018-04-18T01:52:13.840Z,85.48
2018-04-18T01:53:13.856Z,85.00
2018-04-18T01:54:13.868Z,85.77
2018-04-18T01:55:13.891Z,85.77
2018-04-18T01:56:13.900Z,86.15
2018-04-18T01:57:13.918Z,86.91
2018-04-18T01:58:13.936Z,86.05
2018-04-18T01:59:13.956Z,86.72
2018-04-18T02:00:13.970Z,85.96
2018-04-18T02:01:14.007Z,86.82
2018-04-18T02:02:14.003Z,86.63
2018-04-18T02:03:14.014Z,86.82
2018-04-18T02:04:14.031Z,86.72
2018-04-18T02:05:14.046Z,87.29
2018-04-18T02:06:14.068Z,86.53
2018-04-18T02:07:14.079Z,86.82
2018-04-18T02:08:14.097Z,86.43
2018-04-18T02:09:14.111Z,85.86
2018-04-18T02:10:14.131Z,85.67
2018-04-18T02:11:14.142Z,85.67
2018-04-18T02:12:14.163Z,85.58
2018-04-18T02:13:14.175Z,85.96
2018-04-18T02:14:14.192Z,86.63
2018-04-18T02:15:14.207Z,85.86
2018-04-18T02:16:14.223Z,86.53
2018-04-18T02:17:14.239Z,85.67
2018-04-18T02:18:14.256Z,85.67
2018-04-18T02:19:14.271Z,85.19
2018-04-18T02:20:14.287Z,85.77
2018-04-18T02:21:14.306Z,86.43
2018-04-18T02:22:14.336Z,85.86
2018-04-18T02:23:14.350Z,86.15
2018-04-18T02:24:14.352Z,86.91
2018-04-18T02:25:14.368Z,86.24
2018-04-18T02:26:14.385Z,86.53
2018-04-18T02:27:14.400Z,86.43
2018-04-18T02:28:14.415Z,86.72
2018-04-18T02:29:14.433Z,86.63
2018-04-18T02:30:14.448Z,86.82
2018-04-18T02:31:14.468Z,86.91
2018-04-18T02:32:14.479Z,86.15
2018-04-18T02:33:14.498Z,86.63
2018-04-18T02:34:14.527Z,86.82
2018-04-18T02:35:14.529Z,86.72
2018-04-18T02:36:14.551Z,86.82
2018-04-18T02:37:14.562Z,86.05
2018-04-18T02:38:14.578Z,86.63
2018-04-18T02:39:14.593Z,86.63
2018-04-18T02:40:14.608Z,86.43
2018-04-18T02:41:14.626Z,86.53
2018-04-18T02:42:14.641Z,86.63
2018-04-18T02:43:14.656Z,86.15
2018-04-18T02:44:14.671Z,86.43
2018-04-18T02:45:14.690Z,86.82
2018-04-18T02:46:14.705Z,87.01
2018-04-18T02:47:14.726Z,87.35
2018-04-18T02:48:14.736Z,88.11
2018-04-18T02:49:14.755Z,87.82
2018-04-18T02:50:14.768Z,87.68
2018-04-18T02:51:14.784Z,86.82
2018-04-18T02:52:14.799Z,86.72
2018-04-18T02:53:14.815Z,86.53
2018-04-18T02:54:14.831Z,86.63
2018-04-18T02:55:14.855Z,86.15
2018-04-18T02:56:14.863Z,86.43
2018-04-18T02:57:14.879Z,85.96
2018-04-18T02:58:14.905Z,86.43
2018-04-18T02:59:14.911Z,86.15
2018-04-18T03:00:14.928Z,86.43
2018-04-18T03:01:14.945Z,86.10
2018-04-18T03:02:14.960Z,86.53
2018-04-18T03:03:14.978Z,86.96
2018-04-18T03:04:15.017Z,86.87
2018-04-18T03:05:15.010Z,87.06
2018-04-18T03:06:15.089Z,87.73
2018-04-18T03:07:15.045Z,87.73
2018-04-18T03:08:15.069Z,87.54
2018-04-18T03:09:15.070Z,87.92
2018-04-18T03:10:15.087Z,87.06
2018-04-18T03:11:15.106Z,87.25
2018-04-18T03:12:15.117Z,86.77
2018-04-18T03:13:15.136Z,86.77
2018-04-18T03:14:15.155Z,86.77
2018-04-18T03:15:15.167Z,87.35
2018-04-18T03:16:15.182Z,87.25
2018-04-18T03:17:15.217Z,87.44
2018-04-18T03:18:15.214Z,87.73
2018-04-18T03:19:15.236Z,87.92
2018-04-18T03:20:15.247Z,87.63
2018-04-18T03:21:15.262Z,87.54
2018-04-18T03:22:15.278Z,88.30
2018-04-18T03:23:15.299Z,88.30
2018-04-18T03:24:15.311Z,88.11
2018-04-18T03:25:15.326Z,88.97
2018-04-18T03:26:15.342Z,88.59
2018-04-18T03:27:15.359Z,88.20
2018-04-18T03:28:15.374Z,87.92
2018-04-18T03:29:15.393Z,88.30
2018-04-18T03:30:15.435Z,88.30
2018-04-18T03:31:15.422Z,88.20
2018-04-18T03:32:15.438Z,88.20
2018-04-18T03:33:15.458Z,88.40
2018-04-18T03:34:15.472Z,88.11
2018-04-18T03:35:15.485Z,88.40
2018-04-18T03:36:15.502Z,88.49
2018-04-18T03:37:15.552Z,88.87
2018-04-18T03:38:15.636Z,87.92
2018-04-18T03:39:15.551Z,88.30
2018-04-18T03:40:15.566Z,88.20
2018-04-18T03:41:15.583Z,87.73
2018-04-18T03:42:15.597Z,88.11
2018-04-18T03:43:15.615Z,87.92
2018-04-18T03:44:15.633Z,88.20
2018-04-18T03:45:15.645Z,87.63
2018-04-18T03:46:15.662Z,87.44
2018-04-18T03:47:15.676Z,87.92
2018-04-18T03:48:15.693Z,88.11
2018-04-18T03:49:15.709Z,87.73
2018-04-18T03:50:15.734Z,87.25
2018-04-18T03:51:15.739Z,87.35
2018-04-18T03:52:15.756Z,87.63
2018-04-18T03:53:15.771Z,87.44
2018-04-18T03:54:15.794Z,87.54
2018-04-18T03:55:15.804Z,88.49
2018-04-18T03:56:15.825Z,88.20
2018-04-18T03:57:15.843Z,88.59
2018-04-18T03:58:15.864Z,88.45
2018-04-18T03:59:15.869Z,88.87
2018-04-18T04:00:15.889Z,88.49
2018-04-18T04:01:15.901Z,88.92
2018-04-18T04:02:15.959Z,89.50
2018-04-18T04:03:15.948Z,89.50
2018-04-18T04:04:15.951Z,89.59
2018-04-18T04:05:15.961Z,88.92
2018-04-18T04:06:15.985Z,89.02
2018-04-18T04:07:15.994Z,89.50
2018-04-18T04:08:16.009Z,90.07
2018-04-18T04:09:16.029Z,90.17
2018-04-18T04:10:16.047Z,89.69
2018-04-18T04:11:16.058Z,90.17
2018-04-18T04:12:16.071Z,89.88
2018-04-18T04:13:16.088Z,89.69
2018-04-18T04:14:16.113Z,89.78
2018-04-18T04:15:16.120Z,90.26
2018-04-18T04:16:16.135Z,89.69
2018-04-18T04:17:16.151Z,89.69
2018-04-18T04:18:16.166Z,89.40
2018-04-18T04:19:16.182Z,89.40
2018-04-18T04:20:16.903Z,89.59
2018-04-18T04:21:16.226Z,89.50
2018-04-18T04:22:16.231Z,90.26
2018-04-18T04:23:16.253Z,89.78
2018-04-18T04:24:16.259Z,90.36
2018-04-18T04:25:16.277Z,90.55
2018-04-18T04:26:16.297Z,90.64
2018-04-18T04:27:16.309Z,90.98
2018-04-18T04:28:16.323Z,91.31
2018-04-18T04:29:16.339Z,91.12
2018-04-18T04:30:16.373Z,91.07
2018-04-18T04:31:16.371Z,90.93
2018-04-18T04:32:16.392Z,90.88
2018-04-18T04:33:16.407Z,90.64
2018-04-18T04:34:16.419Z,91.60
2018-04-18T04:35:16.433Z,91.02
2018-04-18T04:36:16.456Z,90.64
2018-04-18T04:37:16.473Z,90.73
2018-04-18T04:38:16.482Z,91.12
2018-04-18T04:39:16.656Z,91.31
2018-04-18T04:40:16.696Z,91.60
2018-04-18T04:41:16.529Z,89.78
2018-04-18T04:42:16.687Z,90.55
2018-04-18T04:43:16.558Z,89.97
2018-04-18T04:44:16.603Z,90.31
2018-04-18T04:45:16.592Z,91.64
2018-04-18T04:46:16.606Z,91.12
2018-04-18T04:47:16.624Z,90.64
2018-04-18T04:48:16.645Z,91.41
2018-04-18T04:49:16.655Z,91.41
2018-04-18T04:50:16.672Z,91.31
2018-04-18T04:51:16.690Z,90.26
2018-04-18T04:52:16.702Z,90.64
2018-04-18T04:53:16.741Z,91.07
2018-04-18T04:54:16.733Z,90.64
2018-04-18T04:55:16.750Z,90.88
2018-04-18T04:56:16.768Z,91.27
2018-04-18T04:57:16.784Z,91.27
2018-04-18T04:58:16.804Z,91.31
2018-04-18T04:59:16.814Z,91.50
2018-04-18T05:00:16.829Z,91.12
2018-04-18T05:01:16.845Z,91.02
2018-04-18T05:02:16.863Z,90.64
2018-04-18T05:03:16.881Z,90.93
2018-04-18T05:04:18.586Z,90.45
2018-04-18T05:05:17.230Z,91.21
2018-04-18T05:06:17.558Z,90.45
2018-04-18T05:07:18.875Z,89.97
2018-04-18T05:08:17.134Z,89.88
2018-04-18T05:09:17.095Z,89.50
2018-04-18T05:10:17.432Z,89.12
2018-04-18T05:11:17.870Z,89.59
2018-04-18T05:12:18.156Z,89.31
2018-04-18T05:13:17.038Z,89.50
2018-04-18T05:14:17.054Z,90.36
2018-04-18T05:15:17.065Z,90.07
2018-04-18T05:16:17.077Z,89.78
2018-04-18T05:17:17.096Z,89.88
2018-04-18T05:18:17.113Z,89.88
2018-04-18T05:19:17.128Z,89.78
2018-04-18T05:20:17.142Z,89.40
2018-04-18T05:21:17.165Z,89.40
2018-04-18T05:22:17.178Z,89.40
2018-04-18T05:23:17.191Z,89.97
2018-04-18T05:24:17.209Z,89.69
2018-04-18T05:25:17.250Z,90.45
2018-04-18T05:26:19.302Z,90.07
2018-04-18T05:27:17.253Z,89.78
2018-04-18T05:28:17.268Z,89.78
2018-04-18T05:29:17.282Z,90.17
2018-04-18T05:30:17.306Z,89.97
2018-04-18T05:31:17.314Z,90.55
2018-04-18T05:32:17.382Z,90.17
2018-04-18T05:33:17.346Z,89.97
2018-04-18T05:34:17.379Z,89.69
2018-04-18T05:35:17.392Z,89.31
2018-04-18T05:36:17.392Z,89.59
2018-04-18T05:37:17.415Z,88.73
2018-04-18T05:38:17.426Z,88.73
2018-04-18T05:39:17.440Z,89.21
2018-04-18T05:40:17.458Z,89.50
2018-04-18T05:41:17.480Z,89.40
2018-04-18T05:42:17.492Z,89.02
2018-04-18T05:43:17.626Z,89.59
2018-04-18T05:44:17.518Z,89.78
2018-04-18T05:45:17.535Z,89.50
2018-04-18T05:46:17.555Z,89.40
2018-04-18T05:47:17.567Z,90.07
2018-04-18T05:48:17.581Z,90.45
2018-04-18T05:49:17.598Z,89.78
2018-04-18T05:50:17.623Z,89.69
2018-04-18T05:51:17.642Z,89.97
2018-04-18T05:52:17.645Z,89.25
2018-04-18T05:53:17.675Z,89.31
2018-04-18T05:54:17.679Z,89.16
2018-04-18T05:55:17.697Z,88.87
2018-04-18T05:56:17.712Z,88.40
2018-04-18T05:57:17.726Z,88.78
2018-04-18T05:58:17.742Z,89.45
2018-04-18T05:59:17.765Z,88.68
2018-04-18T06:00:17.772Z,87.35
2018-04-18T06:01:17.789Z,87.35
2018-04-18T06:02:17.803Z,88.30
2018-04-18T06:03:17.819Z,87.92
2018-04-18T06:04:17.835Z,88.01
2018-04-18T06:05:17.858Z,87.44
2018-04-18T06:06:17.918Z,87.73
2018-04-18T06:07:17.884Z,87.39
2018-04-18T06:08:17.900Z,86.72
2018-04-18T06:09:17.918Z,86.63
2018-04-18T06:10:17.934Z,86.91
2018-04-18T06:11:17.980Z,87.48
2018-04-18T06:12:17.962Z,87.29
2018-04-18T06:13:17.981Z,87.20
2018-04-18T06:14:17.994Z,86.91
2018-04-18T06:15:18.128Z,85.96
2018-04-18T06:16:18.986Z,86.72
2018-04-18T06:17:18.260Z,86.72
2018-04-18T06:18:18.059Z,86.15
2018-04-18T06:19:18.076Z,86.82
2018-04-18T06:20:18.115Z,86.53
2018-04-18T06:21:18.235Z,86.24
2018-04-18T06:22:18.125Z,86.24
2018-04-18T06:23:18.137Z,86.19
2018-04-18T06:24:18.157Z,86.00
2018-04-18T06:25:18.169Z,85.14
2018-04-18T06:26:18.197Z,86.10
2018-04-18T06:27:18.207Z,85.42
2018-04-18T06:28:18.216Z,85.14
2018-04-18T06:29:18.235Z,85.05
2018-04-18T06:30:18.250Z,84.85
2018-04-18T06:31:18.303Z,84.76
2018-04-18T06:32:18.285Z,84.66
2018-04-18T06:33:18.300Z,84.89
2018-04-18T06:34:18.316Z,84.13
2018-04-18T06:35:18.330Z,83.84
2018-04-18T06:36:18.600Z,83.84
2018-04-18T06:37:18.363Z,83.27
2018-04-18T06:38:18.380Z,82.98
2018-04-18T06:39:18.400Z,82.79
2018-04-18T06:40:18.413Z,82.79
2018-04-18T06:41:18.437Z,82.89
2018-04-18T06:42:18.444Z,82.26
2018-04-18T06:43:18.472Z,82.89
2018-04-18T06:44:18.480Z,82.12
2018-04-18T06:45:18.573Z,81.97
2018-04-18T06:46:18.502Z,82.26
2018-04-18T06:47:18.527Z,81.78
2018-04-18T06:48:19.250Z,81.97
2018-04-18T06:49:18.558Z,81.88
2018-04-18T06:50:18.573Z,81.21
2018-04-18T06:51:18.588Z,81.30
2018-04-18T06:52:18.603Z,80.92
2018-04-18T06:53:18.617Z,80.82
2018-04-18T06:54:18.632Z,81.11
2018-04-18T06:55:18.649Z,80.67
2018-04-18T06:56:18.673Z,80.00
2018-04-18T06:57:18.686Z,79.43
2018-04-18T06:58:18.702Z,79.81
2018-04-18T06:59:18.715Z,80.00
2018-04-18T07:00:18.745Z,79.62
2018-04-18T07:01:18.753Z,79.33
2018-04-18T07:02:18.765Z,79.52
2018-04-18T07:03:19.106Z,79.43
2018-04-18T07:04:18.800Z,79.75
2018-04-18T07:05:18.815Z,79.37
2018-04-18T07:06:18.830Z,78.51
2018-04-18T07:07:18.850Z,78.99
2018-04-18T07:08:18.864Z,78.80
2018-04-18T07:09:18.882Z,78.70
2018-04-18T07:10:18.909Z,78.51
2018-04-18T07:11:18.923Z,78.32
2018-04-18T07:12:18.937Z,77.94
2018-04-18T07:13:18.952Z,77.26
2018-04-18T07:14:19.382Z,77.17
2018-04-18T07:15:18.981Z,76.60
2018-04-18T07:16:19.002Z,76.69
2018-04-18T07:17:19.017Z,76.25
2018-04-18T07:18:19.229Z,75.77
2018-04-18T07:19:19.056Z,75.68
2018-04-18T07:20:19.223Z,76.06
2018-04-18T07:21:19.129Z,75.96
2018-04-18T07:22:19.206Z,75.68
2018-04-18T07:23:19.140Z,75.77
2018-04-18T07:24:19.139Z,75.20
2018-04-18T07:25:19.156Z,75.29
2018-04-18T07:26:19.183Z,75.10
2018-04-18T07:27:19.183Z,74.95
2018-04-18T07:28:19.211Z,73.99
2018-04-18T07:29:19.231Z,73.99
2018-04-18T07:30:19.257Z,74.08
2018-04-18T07:31:19.263Z,73.41
2018-04-18T07:32:19.268Z,73.22
2018-04-18T07:33:19.282Z,73.90
2018-04-18T07:34:19.339Z,73.61
2018-04-18T07:35:19.317Z,73.03
2018-04-18T07:36:19.336Z,73.03
2018-04-18T07:37:19.352Z,72.64
2018-04-18T07:38:19.381Z,72.27
2018-04-18T07:39:19.424Z,71.15
2018-04-18T07:40:19.409Z,71.15
2018-04-18T07:41:19.543Z,70.67
2018-04-18T07:42:19.438Z,70.00
2018-04-18T07:43:19.453Z,70.29
2018-04-18T07:44:19.470Z,70.09
2018-04-18T07:45:19.486Z,70.00
2018-04-18T07:46:19.544Z,69.90
2018-04-18T07:47:19.521Z,69.26
2018-04-18T07:48:19.539Z,69.36
2018-04-18T07:49:19.556Z,69.36
2018-04-18T07:50:19.581Z,69.46
2018-04-18T07:51:19.606Z,68.88
2018-04-18T07:52:19.662Z,68.98
2018-04-18T07:53:19.625Z,69.17
2018-04-18T07:54:19.642Z,68.44
2018-04-18T07:55:19.673Z,68.30
2018-04-18T07:56:20.712Z,67.76
2018-04-18T07:57:20.559Z,67.35
2018-04-18T07:58:19.847Z,67.47
2018-04-18T07:59:20.150Z,67.38
2018-04-18T08:00:19.746Z,67.47
2018-04-18T08:01:20.335Z,67.76
2018-04-18T08:02:19.781Z,67.47
2018-04-18T08:03:19.868Z,66.90
2018-04-18T08:04:19.813Z,67.09
2018-04-18T08:05:19.835Z,67.09
2018-04-18T08:06:19.938Z,67.47
2018-04-18T08:07:19.880Z,67.19
2018-04-18T08:08:19.886Z,67.32
2018-04-18T08:09:19.904Z,67.03
2018-04-18T08:10:19.917Z,67.00
2018-04-18T08:11:19.955Z,67.13
2018-04-18T08:12:19.954Z,66.93
2018-04-18T08:13:19.987Z,66.93
2018-04-18T08:14:20.041Z,66.64
2018-04-18T08:15:20.202Z,66.64
2018-04-18T08:16:20.034Z,66.46
2018-04-18T08:17:20.127Z,65.49
2018-04-18T08:18:20.207Z,65.30
2018-04-18T08:19:20.112Z,65.14
2018-04-18T08:20:20.275Z,64.56
2018-04-18T08:21:20.353Z,64.09
2018-04-18T08:22:20.128Z,63.60
2018-04-18T08:23:20.151Z,64.18
2018-04-18T08:24:20.163Z,64.28
2018-04-18T08:25:20.182Z,63.89
2018-04-18T08:26:20.222Z,63.60
2018-04-18T08:27:20.242Z,63.32
2018-04-18T08:28:20.233Z,63.45
2018-04-18T08:29:20.269Z,62.96
2018-04-18T08:30:20.275Z,63.25
2018-04-18T08:31:20.297Z,63.25
2018-04-18T08:32:20.308Z,61.91
2018-04-18T08:33:20.322Z,61.81
2018-04-18T08:34:20.340Z,61.91
2018-04-18T08:35:20.360Z,61.91
2018-04-18T08:36:20.374Z,62.00
2018-04-18T08:37:20.393Z,62.10
2018-04-18T08:38:20.461Z,62.96
2018-04-18T08:39:20.429Z,62.38
2018-04-18T08:40:20.453Z,61.52
2018-04-18T08:41:20.464Z,61.23
2018-04-18T08:42:20.506Z,61.14
2018-04-18T08:43:20.499Z,61.55
2018-04-18T08:44:20.876Z,60.78
2018-04-18T08:45:21.966Z,59.92
2018-04-18T08:46:20.553Z,59.92
2018-04-18T08:47:20.568Z,59.15
2018-04-18T08:48:20.586Z,58.86
2018-04-18T08:49:20.607Z,59.53
2018-04-18T08:50:20.853Z,58.57
2018-04-18T08:51:20.640Z,58.28
2018-04-18T08:52:20.659Z,58.18
2018-04-18T08:53:20.904Z,58.76
2018-04-18T08:54:20.897Z,58.67
2018-04-18T08:55:20.910Z,58.47
2018-04-18T08:56:20.731Z,56.96
2018-04-18T08:57:20.753Z,56.00
2018-04-18T08:58:20.766Z,57.06
2018-04-18T08:59:20.809Z,55.81
2018-04-18T09:00:20.816Z,55.90
2018-04-18T09:01:20.831Z,54.56
2018-04-18T09:02:20.838Z,55.33
2018-04-18T09:03:20.867Z,55.43
2018-04-18T09:04:21.070Z,55.71
2018-04-18T09:05:20.909Z,56.48
2018-04-18T09:06:20.913Z,56.67
2018-04-18T09:07:20.959Z,56.10
2018-04-18T09:08:20.946Z,56.48
2018-04-18T09:09:20.982Z,56.29
2018-04-18T09:10:20.995Z,56.20
2018-04-18T09:11:21.063Z,54.85
2018-04-18T09:12:21.018Z,54.56
2018-04-18T09:13:21.128Z,54.68
2018-04-18T09:14:21.107Z,54.97
2018-04-18T09:15:21.076Z,55.26
2018-04-18T09:16:21.095Z,55.93
2018-04-18T09:17:21.184Z,55.16
2018-04-18T09:18:21.145Z,55.93
2018-04-18T09:19:21.146Z,55.16
2018-04-18T09:20:21.309Z,55.16
2018-04-18T09:21:21.186Z,54.87
2018-04-18T09:22:21.406Z,54.97
2018-04-18T09:23:21.224Z,55.83
2018-04-18T09:24:21.241Z,55.16
2018-04-18T09:25:21.323Z,55.65
2018-04-18T09:26:21.285Z,55.55
2018-04-18T09:27:21.303Z,54.49
2018-04-18T09:28:21.524Z,54.87
2018-04-18T09:29:21.328Z,54.00
2018-04-18T09:30:21.358Z,53.74
2018-04-18T09:31:21.370Z,53.17
2018-04-18T09:32:21.406Z,53.55
2018-04-18T09:33:21.407Z,52.49
2018-04-18T09:34:21.426Z,51.24
2018-04-18T09:35:21.441Z,51.72
2018-04-18T09:36:21.510Z,51.92
2018-04-18T09:37:21.478Z,52.30
2018-04-18T09:38:21.496Z,52.78
2018-04-18T09:39:21.531Z,53.45
2018-04-18T09:40:21.534Z,53.65
2018-04-18T09:41:21.563Z,53.48
2018-04-18T09:42:21.570Z,52.81
2018-04-18T09:43:21.587Z,51.46
2018-04-18T09:44:21.623Z,51.36
2018-04-18T09:45:21.625Z,50.78
2018-04-18T09:46:21.670Z,50.59
2018-04-18T09:47:21.664Z,50.40
2018-04-18T09:48:21.692Z,50.69
2018-04-18T09:49:21.705Z,50.78
2018-04-18T09:50:21.729Z,50.78
2018-04-18T09:51:22.531Z,50.01
2018-04-18T09:52:21.765Z,50.01
2018-04-18T09:53:21.777Z,49.34
2018-04-18T09:54:21.940Z,49.15
2018-04-18T09:55:21.820Z,48.95
2018-04-18T09:56:21.862Z,48.66
2018-04-18T09:57:21.875Z,49.34
2018-04-18T09:58:21.934Z,49.73
2018-04-18T09:59:21.891Z,49.15
2018-04-18T10:00:21.922Z,49.73
2018-04-18T10:01:21.926Z,49.73
2018-04-18T10:02:21.943Z,48.97
2018-04-18T10:03:21.965Z,47.24
2018-04-18T10:04:21.999Z,47.05
2018-04-18T10:05:22.013Z,46.86
2018-04-18T10:06:22.029Z,46.56
2018-04-18T10:07:22.101Z,47.92
2018-04-18T10:08:22.062Z,46.95
2018-04-18T10:09:22.083Z,46.47
2018-04-18T10:10:22.185Z,46.86
2018-04-18T10:11:22.111Z,45.89
2018-04-18T10:12:22.137Z,46.20
2018-04-18T10:13:22.160Z,46.76
2018-04-18T10:14:22.233Z,47.14
2018-04-18T10:15:22.187Z,46.28
2018-04-18T10:16:22.675Z,46.37
2018-04-18T10:17:22.237Z,46.76
2018-04-18T10:18:22.244Z,46.66
2018-04-18T10:19:22.263Z,46.40
2018-04-18T10:20:22.280Z,46.88
2018-04-18T10:21:22.300Z,47.65
2018-04-18T10:22:22.322Z,48.64
2018-04-18T10:23:22.355Z,48.23
2018-04-18T10:24:22.359Z,48.54
2018-04-18T10:25:22.378Z,48.44
2018-04-18T10:26:22.394Z,48.25
2018-04-18T10:27:22.412Z,48.44
2018-04-18T10:28:22.430Z,49.02
2018-04-18T10:29:22.456Z,48.83
2018-04-18T10:30:22.468Z,48.83
2018-04-18T10:31:22.488Z,48.06
2018-04-18T10:32:22.508Z,47.96
2018-04-18T10:33:22.545Z,47.09
2018-04-18T10:34:22.545Z,47.19
2018-04-18T10:35:22.565Z,46.90
2018-04-18T10:36:22.583Z,46.61
2018-04-18T10:37:22.670Z,47.09
2018-04-18T10:38:22.641Z,47.96
2018-04-18T10:39:22.708Z,47.29
2018-04-18T10:40:22.745Z,46.23
2018-04-18T10:41:22.737Z,47.19
2018-04-18T10:42:22.825Z,47.02
2018-04-18T10:43:22.838Z,47.22
2018-04-18T10:44:22.962Z,46.92
2018-04-18T10:45:22.760Z,46.51
2018-04-18T10:46:22.778Z,47.67
2018-04-18T10:47:22.807Z,47.41
2018-04-18T10:48:22.896Z,47.22
2018-04-18T10:49:22.853Z,46.54
2018-04-18T10:50:22.856Z,46.25
2018-04-18T10:51:22.873Z,45.96
2018-04-18T10:52:22.921Z,46.64
2018-04-18T10:53:22.912Z,47.31
2018-04-18T10:54:23.072Z,46.92
2018-04-18T10:55:22.951Z,47.12
2018-04-18T10:56:22.969Z,47.22
2018-04-18T10:57:23.000Z,46.44
2018-04-18T10:58:23.011Z,45.86
2018-04-18T10:59:23.033Z,45.00
2018-04-18T11:00:23.049Z,45.96
2018-04-18T11:01:23.066Z,45.67
2018-04-18T11:02:23.086Z,45.18
2018-04-18T11:03:23.108Z,45.00
2018-04-18T11:04:23.133Z,44.90
2018-04-18T11:05:23.148Z,45.21
2018-04-18T11:06:23.179Z,45.31
2018-04-18T11:07:23.184Z,45.50
2018-04-18T11:08:23.204Z,45.79
2018-04-18T11:09:23.228Z,45.11
2018-04-18T11:10:23.245Z,44.73
2018-04-18T11:11:23.267Z,43.85
2018-04-18T11:12:23.283Z,44.53
2018-04-18T11:13:23.312Z,43.76
2018-04-18T11:14:23.325Z,44.73
2018-04-18T11:15:23.344Z,44.53
2018-04-18T11:16:23.372Z,43.57
2018-04-18T11:17:23.387Z,44.53
2018-04-18T11:18:23.401Z,43.28
2018-04-18T11:19:23.419Z,44.53
2018-04-18T11:20:23.445Z,44.24
2018-04-18T11:21:23.461Z,44.53
2018-04-18T11:22:23.479Z,43.76
2018-04-18T11:23:23.778Z,44.82
2018-04-18T11:24:23.541Z,45.04
2018-04-18T11:25:23.555Z,43.88
2018-04-18T11:26:23.560Z,44.46
2018-04-18T11:27:23.579Z,43.20
2018-04-18T11:28:24.144Z,43.49
2018-04-18T11:29:23.620Z,43.49
2018-04-18T11:30:23.640Z,43.68
2018-04-18T11:31:23.660Z,43.88
2018-04-18T11:32:23.678Z,43.41
2018-04-18T11:33:23.699Z,43.71
2018-04-18T11:34:23.758Z,43.61
2018-04-18T11:35:23.742Z,43.23
2018-04-18T11:36:23.758Z,43.41
2018-04-18T11:37:23.777Z,43.80
2018-04-18T11:38:23.801Z,43.41
2018-04-18T11:39:23.834Z,43.13
2018-04-18T11:40:23.847Z,43.13
2018-04-18T11:41:23.859Z,43.61
2018-04-18T11:42:23.924Z,44.09
2018-04-18T11:43:23.906Z,43.01
2018-04-18T11:44:23.920Z,44.26
2018-04-18T11:45:23.941Z,43.20
2018-04-18T11:46:23.961Z,42.72
2018-04-18T11:47:23.980Z,43.40
2018-04-18T11:48:24.148Z,43.59
2018-04-18T11:49:24.019Z,43.03
2018-04-18T11:50:24.040Z,42.55
2018-04-18T11:51:24.081Z,41.97
2018-04-18T11:52:24.082Z,42.65
2018-04-18T11:53:24.106Z,43.54
2018-04-18T11:54:24.120Z,43.80
2018-04-18T11:55:24.174Z,43.32
2018-04-18T11:57:24.364Z,44.02
2018-04-18T11:58:24.204Z,43.63
2018-04-18T11:59:24.222Z,42.66
2018-04-18T12:00:24.240Z,43.63
2018-04-18T12:01:24.267Z,42.47
2018-04-18T12:02:24.282Z,42.57
2018-04-18T12:03:24.308Z,42.18
2018-04-18T12:05:24.343Z,41.70
2018-04-18T12:06:24.368Z,42.28
2018-04-18T12:07:24.387Z,42.86
2018-04-18T12:08:24.409Z,43.05
2018-04-18T12:09:24.547Z,43.63
2018-04-18T12:10:24.498Z,42.66
2018-04-18T12:11:24.470Z,44.60
2018-04-18T12:12:24.497Z,43.73
2018-04-18T12:13:24.540Z,43.34
2018-04-18T12:14:24.530Z,42.97
2018-04-18T12:15:24.562Z,42.66
2018-04-18T12:16:24.575Z,43.63
2018-04-18T12:17:24.591Z,43.73
2018-04-18T12:18:24.625Z,42.86
2018-04-18T12:19:24.662Z,45.08
2018-04-18T12:20:24.656Z,43.92
2018-04-18T12:21:28.424Z,42.78
2018-04-18T12:22:24.694Z,43.65
2018-04-18T12:23:24.716Z,43.07
2018-04-18T12:24:26.400Z,43.07
2018-04-18T12:25:24.763Z,43.07
2018-04-18T12:26:24.783Z,42.78
2018-04-18T12:27:24.799Z,44.06
2018-04-18T12:28:24.822Z,42.80
2018-04-18T12:29:24.885Z,42.80
2018-04-18T12:30:24.879Z,42.82
2018-04-18T12:31:24.887Z,43.50
2018-04-18T12:32:24.904Z,43.68
2018-04-18T12:33:24.940Z,43.19
2018-04-18T12:34:25.052Z,41.93
2018-04-18T12:35:24.972Z,42.13
2018-04-18T12:36:24.993Z,42.32
2018-04-18T12:38:25.041Z,42.00
2018-04-18T12:39:25.064Z,42.71
2018-04-18T12:40:25.081Z,42.13
2018-04-18T12:41:25.114Z,42.03
2018-04-18T12:42:25.146Z,42.10
2018-04-18T12:43:25.153Z,41.55
2018-04-18T12:44:25.191Z,41.91
2018-04-18T12:45:25.194Z,42.03
2018-04-18T12:46:25.228Z,41.64
2018-04-18T12:47:25.254Z,41.55
2018-04-18T12:48:25.276Z,41.47
2018-04-18T12:49:25.269Z,41.45
2018-04-18T12:50:25.292Z,40.86
2018-04-18T12:51:25.316Z,42.03
2018-04-18T12:52:25.333Z,40.96
2018-04-18T12:53:25.382Z,40.86
2018-04-18T12:54:25.402Z,41.56
2018-04-18T12:55:25.398Z,40.96
2018-04-18T12:56:25.421Z,41.08